Главная страница
METAR-TAF:

METAR-TAF

Аэропорты :

Йоэнсуу, Финляндия

широта: 62-40N, долгота: 029-38E, высота над уровнем моря: 119 м

Текущие метеонаблюдения

Эта сводка был подготовлена 24 минут назад, в 02:20 UTC
Ветер 4 Узел от западный
Температура 12°C
Влажность 62%
Давление 1003 hPa
Видимость 10 км и более
Нет облачности ниже 1500 м, и нет кучево-дождевой облачности

METAR: EFJO 210220Z AUTO 26004KT CAVOK 12/05 Q1003

Время: 05:44 (02:44 UTC)

Прогноз

Эта сводка был подготовлена 15 часа и 10 минут назад, в 11:34 UTC
Прогноз действительный с 20-го 12 UTC до 20-го 16 UTC
Ветер 15 Узел от западный
Видимость 10 км и более
Нет облачности ниже 1500 м, и нет кучево-дождевой облачности
временами
С 20-го 12 UTC до 20-го 16 UTC
Ветер 17 Узел от западный с порывами до 30 Узел

TAF: EFJO 201134Z 2012/2016 28015KT CAVOK TEMPO 2012/2016 28017G30KT

Метеонаблюдения и прогнозы для более 4000 аэропортов (сводки METAR и TAF).

Имеющиеся станции представлены на карте желтыми и красными точками.

Чтобы увидеть название станции, наведите на нее мышь.

Затем щелкните, чтобы увидеть метеонаблюдения и метеопрогнозы.

Управление картой: чтобы увеличить масштаб, щелкните зеленые кнопки с черным крестиком; чтобы уменьшить масштаб, щелкните зеленую кнопку с тире; для просмотра соседних карт щелкайте зеленые стрелки.


METAR-TAF: